To NAV CANADA Home Page Login to a new session Search on AWWS site Feedback and Comments Disclaimer Vers la page française équivalente Tips FAQ What's new on the site To the Forecasts and Observations / NOTAM section To "File a Flight Plan" website Publications and other links Update of the User's profile FIC Telephone Numbers My Weather Data Folder Route Weather Data Regional Weather Data Local Weather Data To the Forecasts and Observations / NOTAM section
Request Generated 12/10/2016 at 16:34:07 UTC . Weather information available at that time is displayed.

METAR/TAF

HIGH LEVEL/AB    (show WxCam)

METAR CYOJ 101600Z 00000KT 15SM OVC019 M28/M31 A3021 RMK SC8 SLP281=
METAR CYOJ 101500Z 00000KT 15SM BKN019 M29/M32 A3022 RMK SC7 SLP286=
METAR CYOJ 101400Z 00000KT 15SM FEW019 M28/M31 A3023 RMK SC1 SLP289=

TAF CYOJ 101238Z 1013/1101 VRB03KT P6SM SCT020 TEMPO 1013/1101 4SM IC
BKN020
RMK FCST BASED ON AUTO OBS. NXT FCST BY 101900Z=
Your time UTC time
Weather data provided by Environment Canada and NAV CANADA